Time;durP1;ratioP1;P1;durP2;ratioP2;P2;SDS_P1;SDS_P2;PMS_P1;PMS_P2;Temp;Humidity;BMP_temperature;BMP_pressure;BME280_temperature;BME280_humidity;BME280_pressure;Samples;Min_cycle;Max_cycle;Signal;HPM_P1;HPM_P2
2022/06/05 00:04:15;;;;;;;11.98;6.53;;;;;;;13.57;75.20;100991.67;712604;1179;115356;-74
2022/06/05 00:19:18;;;;;;;12.95;7.50;;;;;;;13.46;75.77;100998.73;712201;1179;115972;-74
2022/06/05 00:34:20;;;;;;;11.70;6.45;;;;;;;13.33;75.38;100992.86;712255;1177;115456;-74
2022/06/05 00:49:29;;;;;;;14.73;7.93;;;;;;;13.24;75.88;101004.20;712223;1177;115349;-74
2022/06/05 01:04:34;;;;;;;9.95;6.65;;;;;;;12.96;76.68;101007.45;711837;1179;116144;-74
2022/06/05 01:20:07;;;;;;;16.45;8.00;;;;;;;12.89;77.19;100997.57;712163;1178;117713;-74
2022/06/05 01:35:41;;;;;;;10.65;6.28;;;;;;;12.68;78.07;100982.65;712316;1177;115865;-74
2022/06/05 01:50:51;;;;;;;12.30;6.77;;;;;;;12.44;78.60;100991.67;712333;1180;115715;-74
2022/06/05 02:06:12;;;;;;;9.30;6.00;;;;;;;12.32;78.16;101001.44;712265;1171;115941;-74
2022/06/05 02:21:14;;;;;;;9.70;6.38;;;;;;;12.08;78.93;101000.88;712537;1177;115677;-74
2022/06/05 02:36:17;;;;;;;10.90;6.10;;;;;;;11.97;78.61;101010.49;712179;1177;114920;-74
2022/06/05 02:51:26;;;;;;;13.55;7.90;;;;;;;11.92;78.61;101003.92;712225;1177;115939;-74
2022/06/05 03:06:30;;;;;;;13.55;7.65;;;;;;;11.94;78.98;101010.72;712107;1177;114960;-74
2022/06/05 03:21:34;;;;;;;20.33;9.00;;;;;;;12.08;79.91;101033.27;712232;1177;115223;-74
2022/06/05 03:36:36;;;;;;;14.83;8.13;;;;;;;12.28;80.79;101050.02;712110;1178;115884;-74
2022/06/05 03:51:38;;;;;;;13.63;7.48;;;;;;;12.65;81.21;101060.08;712299;1177;115109;-74
2022/06/05 04:06:41;;;;;;;13.23;6.60;;;;;;;13.00;81.71;101068.59;712182;1177;116051;-74
2022/06/05 04:21:46;;;;;;;11.00;6.67;;;;;;;13.12;81.82;101071.97;712256;1177;114385;-74
2022/06/05 04:36:50;;;;;;;13.40;7.10;;;;;;;13.42;82.70;101071.13;712208;1170;115792;-72
2022/06/05 04:51:52;;;;;;;11.53;6.93;;;;;;;13.97;83.50;101086.46;712609;1178;114579;-75
2022/06/05 05:06:54;;;;;;;14.30;7.45;;;;;;;14.48;83.12;101088.97;712707;1180;115809;-75
2022/06/05 05:21:56;;;;;;;12.28;7.20;;;;;;;14.89;82.24;101094.88;712790;1177;114819;-77
2022/06/05 05:36:59;;;;;;;12.18;6.58;;;;;;;15.59;82.56;101080.38;712771;1180;114839;-78
2022/06/05 05:52:03;;;;;;;9.43;5.43;;;;;;;16.41;81.56;101075.02;712853;1177;114786;-78
2022/06/05 06:07:05;;;;;;;5.75;4.30;;;;;;;17.05;78.53;101066.81;712792;1179;114946;-78
2022/06/05 06:22:07;;;;;;;12.48;4.60;;;;;;;17.77;77.51;101076.99;712586;1177;114367;-77
2022/06/05 06:37:09;;;;;;;8.77;5.47;;;;;;;18.40;76.15;101077.39;712738;1177;115519;-78
2022/06/05 06:52:12;;;;;;;9.40;5.00;;;;;;;19.03;75.21;101073.13;712587;1177;114438;-78
2022/06/05 07:07:14;;;;;;;6.15;3.20;;;;;;;19.61;73.18;101070.16;712352;1177;115228;-75
2022/06/05 07:22:17;;;;;;;5.73;3.17;;;;;;;20.62;72.00;101059.39;712702;1180;114992;-72
2022/06/05 07:37:19;;;;;;;4.30;2.77;;;;;;;21.35;69.13;101061.39;713655;1180;114364;-80
2022/06/05 08:07:42;;;;;;;3.10;2.15;;;;;;;23.39;64.71;101041.95;712835;1180;114996;-79
2022/06/05 08:22:44;;;;;;;3.60;2.45;;;;;;;24.22;62.19;101030.10;712840;1178;115810;-77
2022/06/05 08:53:55;;;;;;;2.10;1.90;;;;;;;25.52;58.51;101027.61;712830;1179;116188;-76
2022/06/05 09:08:58;;;;;;;2.28;1.83;;;;;;;26.13;55.84;101023.46;713152;1180;118775;-77
2022/06/05 09:24:13;;;;;;;4.17;2.20;;;;;;;26.94;56.13;101012.67;714665;1177;115004;-76
2022/06/05 09:39:30;;;;;;;2.70;2.45;;;;;;;26.80;53.23;101003.12;712899;1180;115025;-79
2022/06/05 09:54:36;;;;;;;4.20;1.80;;;;;;;27.54;53.22;101019.95;714325;1177;115003;-71
2022/06/05 10:09:44;;;;;;;1.87;1.50;;;;;;;28.10;51.32;101010.76;713085;1178;115936;-78
2022/06/05 10:25:24;;;;;;;3.20;1.80;;;;;;;28.34;51.01;101006.19;712762;1177;115082;-76
2022/06/05 10:40:46;;;;;;;1.70;1.35;;;;;;;29.08;50.94;100983.13;713262;1179;114691;-76
2022/06/05 10:56:07;;;;;;;3.83;2.13;;;;;;;29.69;50.33;100978.80;712723;1177;114744;-74
2022/06/05 11:26:53;;;;;;;1.45;1.00;;;;;;;30.27;46.44;100965.02;714390;1177;115084;-76
2022/06/05 11:42:11;;;;;;;1.30;1.00;;;;;;;30.60;45.46;100957.86;715657;1177;114694;-76
2022/06/05 11:57:25;;;;;;;0.95;0.85;;;;;;;31.28;45.10;100930.41;713893;1180;115155;-76
2022/06/05 12:12:43;;;;;;;1.40;1.23;;;;;;;31.52;46.58;100911.06;713838;1178;114755;-76
2022/06/05 12:27:58;;;;;;;;;;;;;;;30.92;42.86;100902.95;712505;1180;114359;-76
2022/06/05 12:43:22;;;;;;;2.13;1.60;;;;;;;30.79;45.31;100898.80;713008;1177;102515;-76
2022/06/05 12:58:46;;;;;;;3.30;1.45;;;;;;;31.08;46.12;100884.17;713240;1178;115903;-76
2022/06/05 13:14:07;;;;;;;1.20;1.10;;;;;;;31.35;45.30;100860.53;712987;1180;115116;-76
2022/06/05 13:29:10;;;;;;;1.85;1.25;;;;;;;31.10;46.06;100866.58;712814;1179;115794;-74
2022/06/05 13:44:20;;;;;;;2.45;1.55;;;;;;;31.41;46.09;100853.27;713572;1180;115082;-76
2022/06/05 13:59:49;;;;;;;2.27;1.97;;;;;;;31.52;45.36;100846.01;712937;1179;115663;-74
2022/06/05 14:14:52;;;;;;;2.67;1.50;;;;;;;31.30;45.66;100827.98;715921;1178;115147;-74
2022/06/05 14:29:56;;;;;;;2.00;1.60;;;;;;;30.93;45.76;100819.84;714643;1177;115781;-74
2022/06/05 14:45:10;;;;;;;1.73;1.60;;;;;;;31.43;46.20;100810.45;712926;1180;115191;-74
2022/06/05 15:00:17;;;;;;;3.80;1.60;;;;;;;30.48;45.20;100800.23;712755;1177;115370;-74
2022/06/05 15:15:24;;;;;;;3.65;1.90;;;;;;;30.88;46.21;100777.27;713179;1180;115274;-73
2022/06/05 15:30:32;;;;;;;3.05;1.50;;;;;;;30.73;46.02;100760.94;712761;1177;114239;-74
2022/06/05 15:45:53;;;;;;;1.80;1.70;;;;;;;30.73;45.94;100737.38;712632;1177;115210;-75
2022/06/05 16:01:04;;;;;;;2.33;1.43;;;;;;;30.00;44.87;100724.27;712362;1178;114271;-74
2022/06/05 16:16:45;;;;;;;1.58;1.40;;;;;;;29.40;44.55;100704.35;712859;1177;114989;-75
2022/06/05 16:31:53;;;;;;;1.30;1.20;;;;;;;28.94;44.96;100699.11;712786;1177;114683;-74
2022/06/05 16:46:55;;;;;;;2.93;1.63;;;;;;;28.92;45.16;100685.05;712675;1177;115528;-75
2022/06/05 17:02:19;;;;;;;3.80;1.83;;;;;;;28.44;45.57;100677.29;716543;1177;114383;-74
2022/06/05 17:17:25;;;;;;;4.20;3.00;;;;;;;27.93;45.23;100654.81;712770;1178;115358;-75
2022/06/05 17:32:30;;;;;;;4.70;2.70;;;;;;;27.50;46.84;100646.19;713075;1177;115054;-73
2022/06/05 17:47:35;;;;;;;2.00;1.90;;;;;;;26.92;47.54;100629.88;712623;1177;115496;-73
2022/06/05 18:02:52;;;;;;;4.00;2.60;;;;;;;26.52;48.61;100644.03;712939;1180;114325;-74
2022/06/05 18:18:07;;;;;;;3.40;2.80;;;;;;;25.69;49.76;100604.30;712275;1180;115055;-75
2022/06/05 18:33:52;;;;;;;7.07;3.80;;;;;;;25.02;51.17;100620.38;713482;1180;114522;-75
2022/06/05 18:48:57;;;;;;;10.50;5.40;;;;;;;24.47;52.81;100616.55;712643;1177;115006;-75
2022/06/05 19:04:14;;;;;;;6.27;3.80;;;;;;;23.74;54.05;100628.55;713379;1180;114427;-76
2022/06/05 19:19:26;;;;;;;6.87;4.87;;;;;;;23.16;54.65;100648.13;713190;1179;116173;-76
2022/06/05 19:34:38;;;;;;;9.23;5.13;;;;;;;22.55;56.63;100663.39;713611;1179;114244;-76
2022/06/05 19:49:48;;;;;;;6.67;3.90;;;;;;;22.08;57.32;100656.13;714002;1179;115232;-75
2022/06/05 20:04:53;;;;;;;22.80;9.00;;;;;;;21.40;58.02;100661.39;714469;1178;115930;-74
2022/06/05 20:20:09;;;;;;;39.83;16.80;;;;;;;20.88;60.32;100691.02;713813;1179;116169;-74
2022/06/05 20:35:12;;;;;;;177.60;39.40;;;;;;;20.39;61.19;100697.11;714124;1180;116255;-74
2022/06/05 20:50:23;;;;;;;31.55;14.05;;;;;;;19.75;63.52;100696.78;713661;1177;116057;-74
2022/06/05 21:20:49;;;;;;;89.13;26.80;;;;;;;18.93;66.04;100695.84;713901;1178;116253;-73
2022/06/05 21:36:08;;;;;;;66.70;23.53;;;;;;;18.63;66.78;100705.53;713730;1179;114900;-73
2022/06/05 21:51:15;;;;;;;49.70;18.80;;;;;;;18.17;67.33;100702.86;713824;1177;115982;-73
2022/06/05 22:06:20;;;;;;;35.50;14.45;;;;;;;17.90;67.99;100718.24;713825;1178;116115;-73
2022/06/05 22:21:23;;;;;;;17.50;9.73;;;;;;;17.63;68.84;100731.77;713448;1179;116329;-73
2022/06/05 22:36:25;;;;;;;48.70;18.90;;;;;;;17.06;70.26;100737.99;713335;1180;115703;-73
2022/06/05 22:51:28;;;;;;;20.98;10.55;;;;;;;16.91;71.38;100716.64;713026;1178;116297;-73
2022/06/05 23:06:31;;;;;;;10.13;5.03;;;;;;;17.24;70.62;100724.56;713171;1177;115169;-73
2022/06/05 23:21:34;;;;;;;5.63;4.30;;;;;;;17.11;70.80;100708.34;712667;1179;115097;-74
2022/06/05 23:36:37;;;;;;;7.38;3.95;;;;;;;17.26;69.81;100717.28;712877;1180;115923;-75
2022/06/05 23:51:40;;;;;;;4.90;3.20;;;;;;;17.21;69.56;100703.70;713044;1178;115813;-74
